createdAt,value
2018-05-21T00:01:15.585Z,100099.09
2018-05-21T00:03:43.182Z,100102.03
2018-05-21T00:06:10.859Z,100099.44
2018-05-21T00:08:38.530Z,100103.77
2018-05-21T00:11:06.327Z,100099.63
2018-05-21T00:13:33.945Z,100094.98
2018-05-21T00:16:01.790Z,100093.95
2018-05-21T00:18:29.506Z,100087.73
2018-05-21T00:20:57.143Z,100103.50
2018-05-21T00:23:24.792Z,100089.30
2018-05-21T00:25:52.455Z,100093.22
2018-05-21T00:28:20.150Z,100093.16
2018-05-21T00:30:47.778Z,100092.44
2018-05-21T00:33:15.377Z,100091.47
2018-05-21T00:35:43.018Z,100085.25
2018-05-21T00:38:10.749Z,100082.92
2018-05-21T00:40:38.339Z,100086.50
2018-05-21T00:43:06.087Z,100085.03
2018-05-21T00:45:33.682Z,100085.09
2018-05-21T00:48:01.286Z,100092.88
2018-05-21T00:50:28.907Z,100087.22
2018-05-21T00:52:56.499Z,100090.88
2018-05-21T00:55:35.874Z,100087.73
2018-05-21T00:58:03.465Z,100081.47
2018-05-21T01:00:31.190Z,100084.23
2018-05-21T01:02:58.823Z,100077.72
2018-05-21T01:05:26.434Z,100082.30
2018-05-21T01:07:54.026Z,100081.54
2018-05-21T01:10:21.661Z,100090.03
2018-05-21T01:12:49.252Z,100088.26
2018-05-21T01:15:16.844Z,100089.23
2018-05-21T01:17:44.466Z,100086.48
2018-05-21T01:20:12.879Z,100096.32
2018-05-21T01:22:40.587Z,100090.87
2018-05-21T01:25:08.233Z,100090.41
2018-05-21T01:27:35.831Z,100088.29
2018-05-21T01:30:03.439Z,100090.22
2018-05-21T01:32:31.072Z,100083.60
2018-05-21T01:34:58.655Z,100096.63
2018-05-21T01:37:26.245Z,100091.75
2018-05-21T01:39:53.888Z,100095.84
2018-05-21T01:42:21.494Z,100094.84
2018-05-21T01:44:49.089Z,100089.72
2018-05-21T01:47:16.731Z,100088.22
2018-05-21T01:49:44.326Z,100095.80
2018-05-21T01:52:11.925Z,100092.77
2018-05-21T01:54:39.754Z,100098.48
2018-05-21T01:57:07.340Z,100099.65
2018-05-21T01:59:34.951Z,100101.44
2018-05-21T02:02:02.681Z,100099.22
2018-05-21T02:04:30.284Z,100099.77
2018-05-21T02:06:57.874Z,100107.61
2018-05-21T02:09:25.496Z,100103.38
2018-05-21T02:11:53.089Z,100109.62
2018-05-21T02:14:20.680Z,100114.95
2018-05-21T02:16:48.342Z,100110.12
2018-05-21T02:19:16.185Z,100113.59
2018-05-21T02:21:43.838Z,100112.86
2018-05-21T02:24:11.467Z,100109.84
2018-05-21T02:26:39.156Z,100102.61
2018-05-21T02:29:07.029Z,100104.34
2018-05-21T02:31:34.660Z,100109.01
2018-05-21T02:34:02.275Z,100112.19
2018-05-21T02:36:29.876Z,100111.39
2018-05-21T02:38:57.513Z,100116.83
2018-05-21T02:41:25.102Z,100114.02
2018-05-21T02:43:52.688Z,100111.51
2018-05-21T02:46:20.324Z,100114.44
2018-05-21T02:48:48.115Z,100116.89
2018-05-21T02:51:15.706Z,100114.00
2018-05-21T02:53:43.363Z,100115.42
2018-05-21T02:56:10.972Z,100117.70
2018-05-21T02:58:38.567Z,100118.55
2018-05-21T03:01:06.211Z,100124.19
2018-05-21T03:03:33.813Z,100126.16
2018-05-21T03:06:01.417Z,100131.09
2018-05-21T03:08:29.209Z,100129.88
2018-05-21T03:10:56.872Z,100132.40
2018-05-21T03:13:24.468Z,100131.30
2018-05-21T03:15:52.121Z,100128.52
2018-05-21T03:18:19.713Z,100133.34
2018-05-21T03:20:47.523Z,100132.78
2018-05-21T03:23:15.159Z,100138.81
2018-05-21T03:25:42.756Z,100140.77
2018-05-21T03:28:10.388Z,100133.66
2018-05-21T03:30:38.058Z,100129.19
2018-05-21T03:33:05.667Z,100129.25
2018-05-21T03:35:33.259Z,100140.15
2018-05-21T03:38:00.958Z,100148.95
2018-05-21T03:40:28.617Z,100139.06
2018-05-21T03:42:56.335Z,100130.70
2018-05-21T03:45:24.202Z,100133.95
2018-05-21T03:47:51.944Z,100132.86
2018-05-21T03:50:19.668Z,100137.94
2018-05-21T03:52:47.323Z,100132.80
2018-05-21T03:55:14.995Z,100131.56
2018-05-21T03:57:42.597Z,100131.64
2018-05-21T04:00:22.002Z,100137.91
2018-05-21T04:03:03.078Z,100139.88
2018-05-21T04:05:30.771Z,100134.78
2018-05-21T04:07:58.348Z,100130.52
2018-05-21T04:10:25.911Z,100140.56
2018-05-21T04:12:53.553Z,100146.16
2018-05-21T04:15:21.270Z,100145.13
2018-05-21T04:17:48.848Z,100146.84
2018-05-21T04:20:16.476Z,100139.54
2018-05-21T04:22:44.070Z,100145.52
2018-05-21T04:25:11.645Z,100142.96
2018-05-21T04:27:39.258Z,100138.68
2018-05-21T04:30:06.839Z,100144.00
2018-05-21T04:32:34.418Z,100141.27
2018-05-21T04:35:02.041Z,100139.08
2018-05-21T04:37:29.632Z,100138.27
2018-05-21T04:39:57.237Z,100135.50
2018-05-21T04:42:24.927Z,100141.35
2018-05-21T04:44:52.525Z,100142.52
2018-05-21T04:47:20.107Z,100138.95
2018-05-21T04:49:47.736Z,100144.44
2018-05-21T04:52:15.506Z,100146.49
2018-05-21T04:54:43.140Z,100143.77
2018-05-21T04:57:10.827Z,100140.89
2018-05-21T04:59:38.418Z,100143.33
2018-05-21T05:02:06.024Z,100146.27
2018-05-21T05:04:33.628Z,100147.60
2018-05-21T05:07:01.272Z,100152.54
2018-05-21T05:09:28.849Z,100146.19
2018-05-21T05:11:56.492Z,100142.20
2018-05-21T05:14:30.020Z,100145.31
2018-05-21T05:16:57.655Z,100153.52
2018-05-21T05:19:25.239Z,100155.78
2018-05-21T05:21:52.804Z,100155.13
2018-05-21T05:24:20.438Z,100159.13
2018-05-21T05:26:48.102Z,100155.45
2018-05-21T05:29:15.684Z,100158.48
2018-05-21T05:31:43.308Z,100158.81
2018-05-21T05:34:11.084Z,100156.13
2018-05-21T05:36:38.659Z,100159.33
2018-05-21T05:39:06.404Z,100152.70
2018-05-21T05:41:34.063Z,100145.55
2018-05-21T05:44:01.924Z,100149.92
2018-05-21T05:46:29.533Z,100151.86
2018-05-21T05:48:57.163Z,100148.30
2018-05-21T05:51:24.921Z,100149.63
2018-05-21T05:53:52.528Z,100151.56
2018-05-21T05:56:20.097Z,100154.98
2018-05-21T05:58:47.684Z,100158.25
2018-05-21T06:01:15.367Z,100153.55
2018-05-21T06:03:43.037Z,100153.52
2018-05-21T06:06:10.686Z,100151.77
2018-05-21T06:08:38.340Z,100149.95
2018-05-21T06:11:05.920Z,100151.53
2018-05-21T06:13:33.685Z,100151.16
2018-05-21T06:16:01.402Z,100148.95
2018-05-21T06:18:29.011Z,100141.38
2018-05-21T06:20:56.660Z,100140.72
2018-05-21T06:23:24.319Z,100136.73
2018-05-21T06:25:52.086Z,100136.21
2018-05-21T06:28:19.808Z,100135.01
2018-05-21T06:30:47.526Z,100136.35
2018-05-21T06:33:15.106Z,100136.05
2018-05-21T06:35:42.696Z,100126.07
2018-05-21T06:38:10.715Z,100129.14
2018-05-21T06:40:38.313Z,100124.31
2018-05-21T06:43:06.146Z,100121.45
2018-05-21T06:45:33.893Z,100117.47
2018-05-21T06:48:01.556Z,100121.63
2018-05-21T06:50:29.143Z,100122.66
2018-05-21T06:52:56.761Z,100119.52
2018-05-21T06:55:24.600Z,100120.84
2018-05-21T06:57:52.221Z,100116.36
2018-05-21T07:00:19.869Z,100119.56
2018-05-21T07:02:47.533Z,100126.05
2018-05-21T07:05:15.197Z,100118.43
2018-05-21T07:07:42.828Z,100118.11
2018-05-21T07:10:10.515Z,100118.45
2018-05-21T07:12:38.105Z,100124.95
2018-05-21T07:15:05.843Z,100121.81
2018-05-21T07:17:33.439Z,100119.01
2018-05-21T07:20:01.166Z,100112.86
2018-05-21T07:22:28.837Z,100109.47
2018-05-21T07:24:56.491Z,100112.32
2018-05-21T07:27:24.091Z,100098.70
2018-05-21T07:29:51.844Z,100103.95
2018-05-21T07:32:19.498Z,100098.88
2018-05-21T07:34:47.145Z,100096.37
2018-05-21T07:37:14.772Z,100095.81
2018-05-21T07:39:42.460Z,100093.05
2018-05-21T07:42:10.048Z,100091.37
2018-05-21T07:44:37.793Z,100082.27
2018-05-21T07:47:05.465Z,100081.09
2018-05-21T07:49:33.111Z,100079.23
2018-05-21T07:52:00.736Z,100088.19
2018-05-21T07:54:28.328Z,100087.27
2018-05-21T07:56:55.909Z,100087.53
2018-05-21T07:59:23.579Z,100083.64
2018-05-21T08:01:51.223Z,100082.97
2018-05-21T08:04:18.882Z,100080.44
2018-05-21T08:06:46.561Z,100076.54
2018-05-21T08:09:14.220Z,100080.41
2018-05-21T08:11:41.807Z,100085.23
2018-05-21T08:14:09.531Z,100080.83
2018-05-21T08:16:37.111Z,100079.56
2018-05-21T08:19:04.696Z,100081.81
2018-05-21T08:21:32.335Z,100076.78
2018-05-21T08:23:59.990Z,100073.24
2018-05-21T08:26:27.655Z,100078.95
2018-05-21T08:28:55.329Z,100073.08
2018-05-21T08:31:22.934Z,100073.23
2018-05-21T08:33:50.511Z,100074.13
2018-05-21T08:36:18.284Z,100080.19
2018-05-21T08:38:45.953Z,100074.63
2018-05-21T08:41:13.540Z,100078.66
2018-05-21T08:43:41.464Z,100075.52
2018-05-21T08:46:09.051Z,100075.98
2018-05-21T08:48:36.652Z,100077.12
2018-05-21T08:51:04.279Z,100072.38
2018-05-21T08:53:31.899Z,100076.48
2018-05-21T08:55:59.483Z,100067.56
2018-05-21T08:58:27.261Z,100068.60
2018-05-21T09:00:54.847Z,100067.58
2018-05-21T09:03:22.438Z,100067.28
2018-05-21T09:05:50.068Z,100064.30
2018-05-21T09:08:17.648Z,100058.28
2018-05-21T09:10:45.224Z,100055.83
2018-05-21T09:13:12.834Z,100048.14
2018-05-21T09:15:40.488Z,100050.36
2018-05-21T09:18:08.092Z,100051.33
2018-05-21T09:20:35.700Z,100054.09
2018-05-21T09:23:03.277Z,100048.64
2018-05-21T09:25:30.844Z,100056.12
2018-05-21T09:27:58.612Z,100047.01
2018-05-21T09:30:26.196Z,100042.45
2018-05-21T09:32:53.911Z,100044.67
2018-05-21T09:35:21.545Z,100041.86
2018-05-21T09:37:49.125Z,100039.81
2018-05-21T09:40:16.711Z,100040.50
2018-05-21T09:42:44.305Z,100019.95
2018-05-21T09:45:12.025Z,100026.59
2018-05-21T09:47:40.472Z,100032.84
2018-05-21T09:50:08.144Z,100038.12
2018-05-21T09:52:35.723Z,100023.26
2018-05-21T09:55:03.306Z,100016.44
2018-05-21T09:57:30.915Z,100010.89
2018-05-21T09:59:58.490Z,100003.03
2018-05-21T10:02:26.054Z,100007.80
2018-05-21T10:04:53.668Z,100004.57
2018-05-21T10:07:21.248Z,100011.88
2018-05-21T10:09:48.853Z,100001.82
2018-05-21T10:12:16.468Z,100006.98
2018-05-21T10:14:44.181Z,99997.45
2018-05-21T10:17:11.756Z,99996.86
2018-05-21T10:19:39.374Z,99998.95
2018-05-21T10:22:07.138Z,99984.73
2018-05-21T10:24:34.812Z,99990.16
2018-05-21T10:27:02.451Z,99975.02
2018-05-21T10:29:30.031Z,100000.44
2018-05-21T10:31:57.608Z,99987.19
2018-05-21T10:34:25.212Z,99971.23
2018-05-21T10:36:52.783Z,99987.81
2018-05-21T10:39:20.414Z,99987.55
2018-05-21T10:41:48.140Z,99989.94
2018-05-21T10:44:15.707Z,99987.48
2018-05-21T10:46:43.292Z,99986.92
2018-05-21T10:49:10.903Z,99986.30
2018-05-21T10:51:38.513Z,99987.08
2018-05-21T10:54:06.262Z,100011.69
2018-05-21T10:56:33.866Z,100001.43
2018-05-21T10:59:01.474Z,100011.11
2018-05-21T11:01:29.058Z,100014.11
2018-05-21T11:03:56.712Z,100007.95
2018-05-21T11:06:24.301Z,100011.27
2018-05-21T11:08:51.901Z,100013.80
2018-05-21T11:11:19.520Z,100017.41
2018-05-21T11:13:47.128Z,100013.89
2018-05-21T11:16:14.711Z,100012.08
2018-05-21T11:18:42.363Z,100007.08
2018-05-21T11:21:09.938Z,100012.23
2018-05-21T11:23:37.595Z,100004.62
2018-05-21T11:26:05.251Z,100014.48
2018-05-21T11:28:32.847Z,100017.19
2018-05-21T11:31:00.505Z,100006.27
2018-05-21T11:33:28.082Z,100007.49
2018-05-21T11:35:55.688Z,100000.39
2018-05-21T11:38:23.268Z,100002.59
2018-05-21T11:40:50.898Z,100010.09
2018-05-21T11:43:18.484Z,100011.74
2018-05-21T11:45:46.063Z,100007.16
2018-05-21T11:48:13.679Z,99996.25
2018-05-21T11:50:41.268Z,100000.73
2018-05-21T11:53:08.927Z,100000.32
2018-05-21T11:55:36.721Z,100005.80
2018-05-21T11:58:04.317Z,100001.62
2018-05-21T12:00:31.875Z,99994.14
2018-05-21T12:02:59.472Z,99992.78
2018-05-21T12:05:27.056Z,99986.11
2018-05-21T12:07:54.633Z,99978.98
2018-05-21T12:10:22.255Z,99973.46
2018-05-21T12:12:49.834Z,99984.34
2018-05-21T12:15:17.581Z,99976.98
2018-05-21T12:17:45.205Z,99973.40
2018-05-21T12:20:12.812Z,99972.20
2018-05-21T12:22:40.381Z,99962.84
2018-05-21T12:25:08.016Z,99960.34
2018-05-21T12:27:35.861Z,99956.82
2018-05-21T12:30:03.473Z,99949.92
2018-05-21T12:32:31.096Z,99934.91
2018-05-21T12:34:58.684Z,99933.30
2018-05-21T12:37:26.274Z,99933.41
2018-05-21T12:39:53.947Z,99932.33
2018-05-21T12:42:21.527Z,99925.93
2018-05-21T12:44:49.116Z,99922.33
2018-05-21T12:47:16.755Z,99915.70
2018-05-21T12:49:44.341Z,99914.30
2018-05-21T12:52:11.926Z,99910.77
2018-05-21T12:54:39.600Z,99906.81
2018-05-21T12:57:07.143Z,99907.28
2018-05-21T12:59:34.729Z,99900.24
2018-05-21T13:02:02.343Z,99906.69
2018-05-21T13:04:29.937Z,99902.23
2018-05-21T13:06:57.530Z,99904.17
2018-05-21T13:09:25.129Z,99898.05
2018-05-21T13:11:52.717Z,99892.83
2018-05-21T13:14:20.303Z,99892.22
2018-05-21T13:16:47.915Z,99902.75
2018-05-21T13:19:15.544Z,99887.91
2018-05-21T13:21:43.132Z,99893.71
2018-05-21T13:24:10.850Z,99890.31
2018-05-21T13:26:38.367Z,99900.39
2018-05-21T13:29:05.913Z,99885.62
2018-05-21T13:31:33.517Z,99888.23
2018-05-21T13:34:01.099Z,99875.38
2018-05-21T13:36:28.670Z,99871.67
2018-05-21T13:38:56.273Z,99876.48
2018-05-21T13:41:23.855Z,99870.41
2018-05-21T13:43:51.430Z,99869.52
2018-05-21T13:46:19.035Z,99869.93
2018-05-21T13:48:46.611Z,99866.03
2018-05-21T13:51:14.204Z,99861.78
2018-05-21T13:53:41.821Z,99862.09
2018-05-21T13:56:09.391Z,99857.50
2018-05-21T13:58:36.982Z,99859.59
2018-05-21T14:01:04.683Z,99860.48
2018-05-21T14:03:32.303Z,99860.52
2018-05-21T14:05:59.874Z,99853.97
2018-05-21T14:08:27.505Z,99855.75
2018-05-21T14:10:55.092Z,99864.27
2018-05-21T14:13:22.671Z,99864.16
2018-05-21T14:15:50.323Z,99857.38
2018-05-21T14:18:17.908Z,99850.55
2018-05-21T14:20:45.501Z,99855.97
2018-05-21T14:23:13.122Z,99848.30
2018-05-21T14:25:40.694Z,99842.05
2018-05-21T14:28:08.281Z,99854.98
2018-05-21T14:30:35.931Z,99849.72
2018-05-21T14:33:03.557Z,99843.17
2018-05-21T14:35:31.109Z,99845.11
2018-05-21T14:37:59.024Z,99837.27
2018-05-21T14:40:26.656Z,99843.70
2018-05-21T14:42:54.235Z,99845.14
2018-05-21T14:45:22.008Z,99854.02
2018-05-21T14:47:49.586Z,99856.23
2018-05-21T14:50:17.162Z,99890.39
2018-05-21T14:52:44.788Z,99872.56
2018-05-21T14:55:12.360Z,99876.03
2018-05-21T14:57:39.929Z,99873.88
2018-05-21T15:00:07.533Z,99880.14
2018-05-21T15:02:35.111Z,99885.24
2018-05-21T15:05:02.672Z,99899.98
2018-05-21T15:07:30.308Z,99895.95
2018-05-21T15:09:58.001Z,99891.56
2018-05-21T15:12:25.890Z,99885.17
2018-05-21T15:14:53.546Z,99888.63
2018-05-21T15:17:21.109Z,99887.55
2018-05-21T15:19:48.670Z,99884.87
2018-05-21T15:22:16.345Z,99883.10
2018-05-21T15:24:43.873Z,99883.88
2018-05-21T15:27:11.442Z,99884.12
2018-05-21T15:29:39.102Z,99892.36
2018-05-21T15:32:06.713Z,99883.28
2018-05-21T15:34:34.291Z,99886.02
2018-05-21T15:37:01.889Z,99888.13
2018-05-21T15:39:29.525Z,99880.27
2018-05-21T15:41:57.088Z,99887.17
2018-05-21T15:44:24.985Z,99880.33
2018-05-21T15:46:52.557Z,99882.53
2018-05-21T15:49:20.153Z,99885.81
2018-05-21T15:51:47.954Z,99875.72
2018-05-21T15:54:15.556Z,99877.89
2018-05-21T15:56:43.391Z,99880.07
2018-05-21T15:59:10.993Z,99881.89
2018-05-21T16:01:38.572Z,99886.23
2018-05-21T16:04:06.177Z,99873.97
2018-05-21T16:06:33.784Z,99871.68
2018-05-21T16:09:01.386Z,99881.98
2018-05-21T16:11:28.962Z,99881.40
2018-05-21T16:13:56.563Z,99882.97
2018-05-21T16:16:24.276Z,99884.06
2018-05-21T16:18:51.990Z,99886.09
2018-05-21T16:21:19.676Z,99884.16
2018-05-21T16:23:47.243Z,99887.55
2018-05-21T16:26:14.808Z,99882.85
2018-05-21T16:28:42.453Z,99885.84
2018-05-21T16:31:10.054Z,99884.33
2018-05-21T16:33:37.646Z,99885.00
2018-05-21T16:36:05.477Z,99888.13
2018-05-21T16:38:33.137Z,99893.73
2018-05-21T16:41:00.715Z,99896.42
2018-05-21T16:43:28.316Z,99899.85
2018-05-21T16:45:55.884Z,99896.02
2018-05-21T16:48:23.447Z,99900.78
2018-05-21T16:50:51.068Z,99900.92
2018-05-21T16:53:18.692Z,99904.20
2018-05-21T16:55:46.275Z,99899.70
2018-05-21T16:58:13.856Z,99909.11
2018-05-21T17:00:41.494Z,99914.41
2018-05-21T17:03:09.089Z,99919.08
2018-05-21T17:05:36.707Z,99915.70
2018-05-21T17:08:04.326Z,99915.56
2018-05-21T17:10:31.921Z,99919.61
2018-05-21T17:12:59.511Z,99919.77
2018-05-21T17:15:27.186Z,99923.91
2018-05-21T17:17:54.740Z,99926.51
2018-05-21T17:20:22.381Z,99931.16
2018-05-21T17:22:50.155Z,99927.95
2018-05-21T17:25:17.729Z,99924.82
2018-05-21T17:27:45.293Z,99922.95
2018-05-21T17:30:12.910Z,99929.52
2018-05-21T17:32:40.490Z,99931.96
2018-05-21T17:35:08.052Z,99935.92
2018-05-21T17:37:35.648Z,99940.70
2018-05-21T17:40:03.212Z,99936.64
2018-05-21T17:42:30.818Z,99944.53
2018-05-21T17:44:58.416Z,99941.41
2018-05-21T17:47:25.988Z,99938.30
2018-05-21T17:49:53.600Z,99942.09
2018-05-21T17:52:21.215Z,99942.52
2018-05-21T17:54:48.814Z,99943.72
2018-05-21T17:57:16.465Z,99948.23
2018-05-21T17:59:44.025Z,99948.08
2018-05-21T18:02:11.582Z,99949.30
2018-05-21T18:04:39.172Z,99951.77
2018-05-21T18:07:06.782Z,99956.27
2018-05-21T18:09:34.391Z,99962.91
2018-05-21T18:12:01.988Z,99960.89
2018-05-21T18:14:29.622Z,99957.06
2018-05-21T18:16:57.210Z,99966.86
2018-05-21T18:19:24.810Z,99968.48
2018-05-21T18:21:52.431Z,99971.63
2018-05-21T18:24:20.008Z,99972.30
2018-05-21T18:26:47.626Z,99968.52
2018-05-21T18:29:15.250Z,99969.19
2018-05-21T18:31:42.874Z,99967.14
2018-05-21T18:34:10.599Z,99971.77
2018-05-21T18:36:38.215Z,99971.08
2018-05-21T18:39:06.925Z,99967.28
2018-05-21T18:41:34.485Z,99964.02
2018-05-21T18:44:02.124Z,99972.58
2018-05-21T18:46:29.733Z,99966.61
2018-05-21T18:48:57.390Z,99968.36
2018-05-21T18:51:25.030Z,99976.67
2018-05-21T18:53:52.742Z,99970.83
2018-05-21T18:56:20.332Z,99982.24
2018-05-21T18:58:47.951Z,99976.52
2018-05-21T19:01:15.540Z,99982.91
2018-05-21T19:03:43.127Z,99982.78
2018-05-21T19:06:10.857Z,99992.66
2018-05-21T19:08:38.404Z,99995.77
2018-05-21T19:11:05.987Z,100002.30
2018-05-21T19:13:33.608Z,100003.66
2018-05-21T19:16:01.183Z,100009.64
2018-05-21T19:18:28.773Z,100011.36
2018-05-21T19:20:56.385Z,100012.34
2018-05-21T19:23:23.964Z,100015.28
2018-05-21T19:25:51.547Z,100013.69
2018-05-21T19:28:19.347Z,100015.83
2018-05-21T19:30:46.933Z,100015.27
2018-05-21T19:33:14.672Z,100018.25
2018-05-21T19:35:42.266Z,100022.09
2018-05-21T19:38:09.843Z,100021.38
2018-05-21T19:40:37.577Z,100019.38
2018-05-21T19:43:05.316Z,100026.70
2018-05-21T19:45:33.170Z,100025.44
2018-05-21T19:48:01.569Z,100029.63
2018-05-21T19:50:29.188Z,100035.40
2018-05-21T19:52:56.757Z,100040.97
2018-05-21T19:55:24.342Z,100041.20
2018-05-21T19:57:52.019Z,100035.88
2018-05-21T20:00:19.613Z,100038.19
2018-05-21T20:02:47.361Z,100037.56
2018-05-21T20:05:15.209Z,100036.55
2018-05-21T20:07:42.794Z,100045.19
2018-05-21T20:10:10.549Z,100039.53
2018-05-21T20:12:38.416Z,100044.28
2018-05-21T20:15:05.987Z,100042.73
2018-05-21T20:17:33.608Z,100039.84
2018-05-21T20:20:01.213Z,100043.01
2018-05-21T20:22:28.946Z,100043.95
2018-05-21T20:24:56.622Z,100038.36
2018-05-21T20:27:24.289Z,100036.77
2018-05-21T20:29:52.027Z,100037.58
2018-05-21T20:32:19.691Z,100037.27
2018-05-21T20:34:47.357Z,100038.70
2018-05-21T20:37:15.026Z,100035.34
2018-05-21T20:39:42.649Z,100035.19
2018-05-21T20:42:10.230Z,100031.48
2018-05-21T20:44:37.784Z,100028.70
2018-05-21T20:47:05.397Z,100028.10
2018-05-21T20:49:32.949Z,100026.65
2018-05-21T20:52:00.524Z,100026.36
2018-05-21T20:54:28.239Z,100028.39
2018-05-21T20:56:55.810Z,100031.75
2018-05-21T20:59:23.558Z,100027.34
2018-05-21T21:01:51.148Z,100030.24
2018-05-21T21:04:18.881Z,100026.58
2018-05-21T21:06:46.453Z,100026.58
2018-05-21T21:09:14.076Z,100024.50
2018-05-21T21:11:41.643Z,100036.48
2018-05-21T21:14:09.212Z,100038.77
2018-05-21T21:16:37.013Z,100039.08
2018-05-21T21:19:04.878Z,100034.55
2018-05-21T21:21:32.468Z,100037.31
2018-05-21T21:24:00.125Z,100038.41
2018-05-21T21:26:27.852Z,100045.63
2018-05-21T21:28:55.737Z,100036.84
2018-05-21T21:31:23.424Z,100030.34
2018-05-21T21:33:51.262Z,100027.70
2018-05-21T21:36:18.871Z,100031.00
2018-05-21T21:38:46.447Z,100032.16
2018-05-21T21:41:14.064Z,100038.03
2018-05-21T21:43:41.904Z,100039.79
2018-05-21T21:46:09.547Z,100034.67
2018-05-21T21:48:37.240Z,100037.43
2018-05-21T21:51:04.850Z,100040.80
2018-05-21T21:53:32.564Z,100035.84
2018-05-21T21:56:00.264Z,100036.06
2018-05-21T21:58:28.035Z,100039.84
2018-05-21T22:00:55.892Z,100045.08
2018-05-21T22:03:23.471Z,100040.46
2018-05-21T22:05:51.283Z,100041.25
2018-05-21T22:08:18.946Z,100043.22
2018-05-21T22:10:46.530Z,100046.95
2018-05-21T22:13:14.252Z,100039.63
2018-05-21T22:15:41.836Z,100038.71
2018-05-21T22:18:09.578Z,100028.11
2018-05-21T22:20:37.194Z,100033.87
2018-05-21T22:23:04.901Z,100035.33
2018-05-21T22:25:32.475Z,100037.09
2018-05-21T22:28:00.096Z,100028.52
2018-05-21T22:30:27.681Z,100032.11
2018-05-21T22:32:55.256Z,100037.01
2018-05-21T22:35:23.020Z,100045.91
2018-05-21T22:37:50.676Z,100047.71
2018-05-21T22:40:18.270Z,100040.05
2018-05-21T22:42:47.086Z,100040.98
2018-05-21T22:45:14.675Z,100044.95
2018-05-21T22:47:42.262Z,100043.06
2018-05-21T22:50:09.891Z,100045.77
2018-05-21T22:52:37.679Z,100047.91
2018-05-21T22:55:05.271Z,100041.38
2018-05-21T22:57:32.999Z,100040.05
2018-05-21T23:00:00.584Z,100041.94
2018-05-21T23:02:28.154Z,100044.89
2018-05-21T23:04:55.981Z,100036.06
2018-05-21T23:07:23.564Z,100031.31
2018-05-21T23:09:51.140Z,100032.67
2018-05-21T23:12:18.757Z,100021.97
2018-05-21T23:14:46.408Z,100017.63
2018-05-21T23:17:14.074Z,100012.28
2018-05-21T23:19:41.757Z,100009.33
2018-05-21T23:22:12.500Z,100009.07
2018-05-21T23:24:40.141Z,100014.55
2018-05-21T23:27:07.757Z,100015.09
2018-05-21T23:29:35.347Z,100011.00
2018-05-21T23:32:02.932Z,100011.07
2018-05-21T23:34:30.553Z,100000.20
2018-05-21T23:36:58.142Z,100009.50
2018-05-21T23:39:25.975Z,100003.78
2018-05-21T23:41:53.591Z,100012.87
2018-05-21T23:44:21.285Z,100017.86
2018-05-21T23:46:48.917Z,100013.18
2018-05-21T23:49:16.783Z,100013.02
2018-05-21T23:51:44.359Z,100010.52
2018-05-21T23:54:12.254Z,100009.53
2018-05-21T23:56:40.094Z,100010.47
2018-05-21T23:59:07.825Z,100008.08
